Weather at Match Point Heliport

Public forecast

Using degrees Celsius for public forecast. Weather courtesy of forecast.io.

Closest aviation weather report (METAR) to Match Point Heliport

Closest report is San Fernando Airport, 27.2 nm (50.4 km) E.

2024/05/24 18:00 (retrieved 59 minutes ago)

SADF 241800Z 22011KT 9999 SCT046 11/00 Q1025

Closest aviation forecast (TAF) to Match Point Heliport

Closest forecast is San Fernando Airport, 27.2 nm (50.4 km) E.

2024/05/24 18:00 (retrieved 59 minutes ago)

TAF SADF 241700Z 2418/2518 22015KT 9999 BKN040 TX12/2418Z TN01/2511Z BECMG 2422/2524 20005KT CAVOK BECMG 2514/2516 9999 SCT030